Time;durP1;ratioP1;P1;durP2;ratioP2;P2;SDS_P1;SDS_P2;PMS_P1;PMS_P2;Temp;Humidity;BMP_temperature;BMP_pressure;BME280_temperature;BME280_humidity;BME280_pressure;Samples;Min_cycle;Max_cycle;Signal;HPM_P1;HPM_P2
2024/05/07 00:01:37;;;;;;;;;;;9.10;99.90;;;;;;5512681;26;19936;-69
2024/05/07 00:04:03;;;;;;;;;;;9.20;99.90;;;;;;5519344;26;19951;-69
2024/05/07 00:06:28;;;;;;;;;;;9.10;99.90;;;;;;5519850;25;19934;-69
2024/05/07 00:08:54;;;;;;;;;;;9.10;99.90;;;;;;5519872;26;19928;-69
2024/05/07 00:11:20;;;;;;;;;;;9.10;99.90;;;;;;5516277;26;19927;-68
2024/05/07 00:13:45;;;;;;;;;;;9.10;99.90;;;;;;5519171;26;19927;-69
2024/05/07 00:16:11;;;;;;;;;;;9.10;99.90;;;;;;5519353;25;19941;-69
2024/05/07 00:18:36;;;;;;;;;;;9.10;99.90;;;;;;5512483;26;19927;-69
2024/05/07 00:21:04;;;;;;;;;;;9.10;99.90;;;;;;5519707;26;20680;-69
2024/05/07 00:23:29;;;;;;;;;;;9.00;99.90;;;;;;5517564;26;19935;-69
2024/05/07 00:25:55;;;;;;;;;;;9.00;99.90;;;;;;5509449;25;19927;-69
2024/05/07 00:28:20;;;;;;;;;;;9.00;99.90;;;;;;5487462;26;20447;-69
2024/05/07 00:30:46;;;;;;;;;;;9.00;99.90;;;;;;5519070;26;19927;-69
2024/05/07 00:33:12;;;;;;;;;;;9.00;99.90;;;;;;5519166;25;19927;-69
2024/05/07 00:35:38;;;;;;;;;;;9.00;99.90;;;;;;5519365;26;20363;-69
2024/05/07 00:38:03;;;;;;;;;;;9.00;99.90;;;;;;5518915;26;19947;-69
2024/05/07 00:40:35;;;;;;;;;;;9.00;99.90;;;;;;5518866;25;20367;-69
2024/05/07 00:43:00;;;;;;;;;;;9.00;99.90;;;;;;5513177;25;19927;-69
2024/05/07 00:45:27;;;;;;;;;;;9.00;99.90;;;;;;5518400;26;19931;-69
2024/05/07 00:47:53;;;;;;;;;;;9.00;99.90;;;;;;5513636;26;20026;-69
2024/05/07 00:50:20;;;;;;;;;;;8.90;99.90;;;;;;5518966;25;19943;-69
2024/05/07 00:52:46;;;;;;;;;;;8.90;99.90;;;;;;5518634;26;20283;-69
2024/05/07 00:55:12;;;;;;;;;;;8.90;99.90;;;;;;5519129;26;19999;-69
2024/05/07 00:57:38;;;;;;;;;;;8.90;99.90;;;;;;5513879;26;19939;-69
2024/05/07 01:00:04;;;;;;;;;;;8.80;99.90;;;;;;5517857;25;20371;-69
2024/05/07 01:02:31;;;;;;;;;;;8.80;99.90;;;;;;5519460;26;19928;-69
2024/05/07 01:04:56;;;;;;;;;;;8.70;99.90;;;;;;5518334;26;19999;-69
2024/05/07 01:07:22;;;;;;;;;;;8.70;99.90;;;;;;5517797;25;19939;-69
2024/05/07 01:09:48;;;;;;;;;;;8.70;99.90;;;;;;5517936;26;19927;-69
2024/05/07 01:12:13;;;;;;;;;;;8.80;99.90;;;;;;5519043;25;20394;-69
2024/05/07 01:14:39;;;;;;;;;;;8.80;99.90;;;;;;5513753;26;19927;-69
2024/05/07 01:17:05;;;;;;;;;;;8.70;99.90;;;;;;5516255;25;20278;-69
2024/05/07 01:19:32;;;;;;;;;;;8.70;99.90;;;;;;5518750;26;20267;-69
2024/05/07 01:22:08;;;;;;;;;;;8.70;99.90;;;;;;5519030;26;19928;-69
2024/05/07 01:24:34;;;;;;;;;;;8.70;99.90;;;;;;5513575;26;19936;-69
2024/05/07 01:26:59;;;;;;;;;;;8.60;99.90;;;;;;5509002;25;20006;-69
2024/05/07 01:29:25;;;;;;;;;;;8.60;99.90;;;;;;5516037;25;20364;-69
2024/05/07 01:31:51;;;;;;;;;;;8.50;99.90;;;;;;5513772;26;19928;-69
2024/05/07 01:34:17;;;;;;;;;;;8.60;99.90;;;;;;5518272;26;19927;-69
2024/05/07 01:36:42;;;;;;;;;;;8.50;99.90;;;;;;5514229;25;19927;-69
2024/05/07 01:39:08;;;;;;;;;;;8.50;99.90;;;;;;5518081;26;19928;-69
2024/05/07 01:41:34;;;;;;;;;;;8.50;99.90;;;;;;5512188;25;19928;-69
2024/05/07 01:44:00;;;;;;;;;;;8.40;99.90;;;;;;5515991;26;19996;-69
2024/05/07 01:46:26;;;;;;;;;;;8.40;99.90;;;;;;5518175;26;19939;-69
2024/05/07 01:48:52;;;;;;;;;;;8.30;99.90;;;;;;5513307;26;19931;-69
2024/05/07 01:51:18;;;;;;;;;;;8.30;99.90;;;;;;5518014;25;19935;-69
2024/05/07 01:53:44;;;;;;;;;;;8.20;99.90;;;;;;5516962;26;20275;-69
2024/05/07 01:56:09;;;;;;;;;;;8.80;99.90;;;;;;5508102;26;19927;-69
2024/05/07 01:58:35;;;;;;;;;;;8.10;99.90;;;;;;5520973;26;19928;-69
2024/05/07 02:01:01;;;;;;;;;;;8.10;99.90;;;;;;5513825;25;19931;-69
2024/05/07 02:03:27;;;;;;;;;;;8.10;99.90;;;;;;5489348;26;19939;-69
2024/05/07 02:05:52;;;;;;;;;;;8.10;99.90;;;;;;5521044;26;19938;-69
2024/05/07 02:08:18;;;;;;;;;;;8.10;99.90;;;;;;5520660;25;19927;-69
2024/05/07 02:10:44;;;;;;;;;;;8.00;99.90;;;;;;5522056;26;19927;-69
2024/05/07 02:13:10;;;;;;;;;;;8.10;99.90;;;;;;5512825;26;19927;-69
2024/05/07 02:15:36;;;;;;;;;;;8.10;99.90;;;;;;5521252;26;19935;-69
2024/05/07 02:18:02;;;;;;;;;;;8.10;99.90;;;;;;5519753;25;19939;-69
2024/05/07 02:20:28;;;;;;;;;;;8.20;99.90;;;;;;5520273;26;19927;-69
2024/05/07 02:22:54;;;;;;;;;;;8.20;99.90;;;;;;5515254;26;19927;-69
2024/05/07 02:25:19;;;;;;;;;;;8.20;99.90;;;;;;5521521;26;19928;-69
2024/05/07 02:27:45;;;;;;;;;;;8.20;99.90;;;;;;5519483;25;19927;-69
2024/05/07 02:30:11;;;;;;;;;;;8.20;99.90;;;;;;5516648;26;19927;-69
2024/05/07 02:32:36;;;;;;;;;;;8.20;99.90;;;;;;5521565;26;19996;-70
2024/05/07 02:35:02;;;;;;;;;;;8.20;99.90;;;;;;5520782;26;19927;-70
2024/05/07 02:37:30;;;;;;;;;;;8.10;99.90;;;;;;5520512;25;19956;-70
2024/05/07 02:39:56;;;;;;;;;;;8.10;99.90;;;;;;5516068;26;19928;-70
2024/05/07 02:42:22;;;;;;;;;;;8.10;99.90;;;;;;5516956;25;19935;-70
2024/05/07 02:44:49;;;;;;;;;;;8.10;99.90;;;;;;5520287;26;19928;-70
2024/05/07 02:47:15;;;;;;;;;;;8.10;99.90;;;;;;5520936;26;19935;-70
2024/05/07 02:49:42;;;;;;;;;;;8.10;99.90;;;;;;5520784;25;19940;-70
2024/05/07 02:52:08;;;;;;;;;;;8.10;99.90;;;;;;5520674;26;20431;-70
2024/05/07 02:54:33;;;;;;;;;;;8.10;99.90;;;;;;5521104;26;20545;-70
2024/05/07 02:56:59;;;;;;;;;;;8.10;99.90;;;;;;5518927;26;19934;-70
2024/05/07 02:59:25;;;;;;;;;;;8.10;99.90;;;;;;5516433;25;19931;-70
2024/05/07 03:01:50;;;;;;;;;;;8.10;99.90;;;;;;5507960;26;19999;-70
2024/05/07 03:04:16;;;;;;;;;;;8.10;99.90;;;;;;5516602;26;19939;-70
2024/05/07 03:06:42;;;;;;;;;;;8.10;99.90;;;;;;5520613;26;19927;-70
2024/05/07 03:09:08;;;;;;;;;;;8.10;99.90;;;;;;5519183;25;19927;-70
2024/05/07 03:11:37;;;;;;;;;;;8.00;99.90;;;;;;5520874;26;19927;-70
2024/05/07 03:14:06;;;;;;;;;;;8.00;99.90;;;;;;5520210;26;19935;-70
2024/05/07 03:16:38;;;;;;;;;;;8.00;99.90;;;;;;5519931;26;19935;-70
2024/05/07 03:19:04;;;;;;;;;;;8.00;99.90;;;;;;5517385;25;19927;-70
2024/05/07 03:21:30;;;;;;;;;;;8.00;99.90;;;;;;5519801;26;20383;-70
2024/05/07 03:23:55;;;;;;;;;;;8.00;99.90;;;;;;5515889;26;20372;-70
2024/05/07 03:26:21;;;;;;;;;;;8.00;99.90;;;;;;5520723;26;19927;-70
2024/05/07 03:28:46;;;;;;;;;;;8.00;99.90;;;;;;5518657;25;22486;-70
2024/05/07 03:31:12;;;;;;;;;;;8.00;99.90;;;;;;5520727;26;20351;-70
2024/05/07 03:33:38;;;;;;;;;;;8.00;99.90;;;;;;5516054;26;19997;-70
2024/05/07 03:36:04;;;;;;;;;;;8.10;99.90;;;;;;5514954;26;19934;-70
2024/05/07 03:38:30;;;;;;;;;;;8.10;99.90;;;;;;5518740;25;19928;-70
2024/05/07 03:40:55;;;;;;;;;;;8.10;99.90;;;;;;5509879;26;19935;-70
2024/05/07 03:43:21;;;;;;;;;;;8.10;99.90;;;;;;5520013;25;20011;-70
2024/05/07 03:45:47;;;;;;;;;;;8.10;99.90;;;;;;5518854;26;19931;-70
2024/05/07 03:48:13;;;;;;;;;;;8.10;99.90;;;;;;5515583;26;19927;-70
2024/05/07 03:50:40;;;;;;;;;;;8.20;99.90;;;;;;5509254;26;19952;-70
2024/05/07 03:53:06;;;;;;;;;;;8.20;99.90;;;;;;5505239;25;20386;-70
2024/05/07 03:55:33;;;;;;;;;;;8.30;99.90;;;;;;5511133;26;19934;-70
2024/05/07 03:58:00;;;;;;;;;;;8.30;99.90;;;;;;5519337;26;19936;-70
2024/05/07 04:00:27;;;;;;;;;;;8.30;99.90;;;;;;5517585;25;19927;-70
2024/05/07 04:02:53;;;;;;;;;;;8.30;99.90;;;;;;5519894;26;19935;-70
2024/05/07 04:05:18;;;;;;;;;;;8.30;99.90;;;;;;5520381;26;19928;-70
2024/05/07 04:07:45;;;;;;;;;;;8.30;99.90;;;;;;5519197;25;19951;-70
2024/05/07 04:10:10;;;;;;;;;;;8.70;99.90;;;;;;5514971;26;20363;-70
2024/05/07 04:12:36;;;;;;;;;;;8.30;99.90;;;;;;5515112;26;19995;-70
2024/05/07 04:15:01;;;;;;;;;;;8.20;99.90;;;;;;5518884;26;19934;-70
2024/05/07 04:17:27;;;;;;;;;;;8.20;99.90;;;;;;5515996;25;19935;-70
2024/05/07 04:19:53;;;;;;;;;;;8.20;99.90;;;;;;5517651;26;19935;-70
2024/05/07 04:22:18;;;;;;;;;;;8.20;99.90;;;;;;5520072;26;20360;-70
2024/05/07 04:24:44;;;;;;;;;;;8.30;99.90;;;;;;5519850;26;19935;-70
2024/05/07 04:27:09;;;;;;;;;;;8.20;99.90;;;;;;5517986;25;19933;-70
2024/05/07 04:29:35;;;;;;;;;;;8.20;99.90;;;;;;5519680;26;20378;-70
2024/05/07 04:32:01;;;;;;;;;;;8.20;99.90;;;;;;5518820;26;19935;-70
2024/05/07 04:34:26;;;;;;;;;;;8.30;99.90;;;;;;5520013;26;19934;-70
2024/05/07 04:36:52;;;;;;;;;;;8.10;99.90;;;;;;5484843;26;19927;-70
2024/05/07 04:39:17;;;;;;;;;;;8.20;99.90;;;;;;5515045;26;19931;-70
2024/05/07 04:41:43;;;;;;;;;;;8.20;99.90;;;;;;5518341;25;20251;-70
2024/05/07 04:44:09;;;;;;;;;;;8.20;99.90;;;;;;5509694;26;20259;-70
2024/05/07 04:46:34;;;;;;;;;;;8.10;99.90;;;;;;5516092;26;19938;-70
2024/05/07 04:49:00;;;;;;;;;;;8.20;99.90;;;;;;5519215;26;20321;-70
2024/05/07 04:51:26;;;;;;;;;;;8.10;99.90;;;;;;5518548;25;19927;-70
2024/05/07 04:53:52;;;;;;;;;;;8.20;99.90;;;;;;5513532;26;20287;-70
2024/05/07 04:56:17;;;;;;;;;;;8.20;99.90;;;;;;5519722;26;20287;-69
2024/05/07 04:58:43;;;;;;;;;;;8.20;99.90;;;;;;5518609;26;19934;-70
2024/05/07 05:01:09;;;;;;;;;;;8.20;99.90;;;;;;5518111;25;19934;-70
2024/05/07 05:03:34;;;;;;;;;;;8.20;99.90;;;;;;5519183;26;19928;-70
2024/05/07 05:06:00;;;;;;;;;;;8.20;99.90;;;;;;5510498;25;19943;-70
2024/05/07 05:08:25;;;;;;;;;;;8.30;99.90;;;;;;5510852;26;19938;-70
2024/05/07 05:10:55;;;;;;;;;;;8.40;99.90;;;;;;5516166;25;19935;-70
2024/05/07 05:13:21;;;;;;;;;;;8.50;99.90;;;;;;5517344;26;19936;-70
2024/05/07 05:15:47;;;;;;;;;;;8.60;99.90;;;;;;5516622;26;19935;-70
2024/05/07 05:18:12;;;;;;;;;;;8.70;99.90;;;;;;5513481;26;19928;-70
2024/05/07 05:20:38;;;;;;;;;;;8.80;99.90;;;;;;5517362;25;20368;-70
2024/05/07 05:23:07;;;;;;;;;;;9.00;99.90;;;;;;5518392;26;19934;-70
2024/05/07 05:25:33;;;;;;;;;;;9.10;99.90;;;;;;5517279;26;19928;-70
2024/05/07 05:27:58;;;;;;;;;;;9.10;99.90;;;;;;5505784;26;20301;-70
2024/05/07 05:30:24;;;;;;;;;;;9.10;99.90;;;;;;5518217;25;19932;-70
2024/05/07 05:32:49;;;;;;;;;;;9.40;99.90;;;;;;5508701;26;20003;-68
2024/05/07 05:35:15;;;;;;;;;;;9.90;99.90;;;;;;5502687;26;19928;-68
2024/05/07 05:37:43;;;;;;;;;;;10.80;99.90;;;;;;5509683;25;20328;-68
2024/05/07 05:40:14;;;;;;;;;;;11.90;99.90;;;;;;5521421;26;19935;-68
2024/05/07 05:42:40;;;;;;;;;;;13.20;99.90;;;;;;5520646;25;19981;-68
2024/05/07 05:45:06;;;;;;;;;;;14.50;99.90;;;;;;5521738;26;19935;-69
2024/05/07 05:47:31;;;;;;;;;;;15.70;99.90;;;;;;5517701;26;19928;-68
2024/05/07 05:49:57;;;;;;;;;;;16.90;99.90;;;;;;5519212;25;20360;-69
2024/05/07 05:52:26;;;;;;;;;;;18.00;99.90;;;;;;5521238;26;19980;-69
2024/05/07 05:54:52;;;;;;;;;;;19.00;99.90;;;;;;5521538;26;19996;-69
2024/05/07 05:57:17;;;;;;;;;;;19.80;99.90;;;;;;5517715;26;20030;-69
2024/05/07 05:59:43;;;;;;;;;;;20.60;99.90;;;;;;5521624;25;19939;-69
2024/05/07 06:02:08;;;;;;;;;;;21.30;99.90;;;;;;5517220;26;20423;-70
2024/05/07 06:04:34;;;;;;;;;;;21.80;99.90;;;;;;5521465;26;19935;-70
2024/05/07 06:06:59;;;;;;;;;;;22.40;99.90;;;;;;5521009;26;20380;-70
2024/05/07 06:09:25;;;;;;;;;;;22.80;99.90;;;;;;5521781;25;20016;-69
2024/05/07 06:11:51;;;;;;;;;;;23.10;99.90;;;;;;5512191;26;20283;-70
2024/05/07 06:14:16;;;;;;;;;;;23.60;99.60;;;;;;5521836;26;20070;-70
2024/05/07 06:16:42;;;;;;;;;;;24.00;98.90;;;;;;5520464;25;20287;-70
2024/05/07 06:19:07;;;;;;;;;;;24.50;99.40;;;;;;5521507;26;20413;-70
2024/05/07 06:21:34;;;;;;;;;;;24.90;96.20;;;;;;5521982;26;19991;-70
2024/05/07 06:23:59;;;;;;;;;;;25.50;96.70;;;;;;5521190;26;19938;-70
2024/05/07 06:26:25;;;;;;;;;;;25.90;96.50;;;;;;5520712;25;19935;-70
2024/05/07 06:28:52;;;;;;;;;;;26.30;94.40;;;;;;5520565;26;20389;-70
2024/05/07 06:31:17;;;;;;;;;;;26.70;94.30;;;;;;5521733;26;20370;-70
2024/05/07 06:33:44;;;;;;;;;;;26.80;92.60;;;;;;5520913;26;19939;-70
2024/05/07 06:36:10;;;;;;;;;;;27.00;94.70;;;;;;5520199;25;20281;-70
2024/05/07 06:38:36;;;;;;;;;;;26.80;90.80;;;;;;5521321;26;19928;-70
2024/05/07 06:41:02;;;;;;;;;;;26.80;89.60;;;;;;5520101;25;19935;-70
2024/05/07 06:43:27;;;;;;;;;;;27.20;93.50;;;;;;5514933;26;19934;-70
2024/05/07 06:45:53;;;;;;;;;;;27.10;89.40;;;;;;5515757;26;19979;-70
2024/05/07 06:48:19;;;;;;;;;;;26.90;90.90;;;;;;5520965;26;19927;-70
2024/05/07 06:50:44;;;;;;;;;;;26.90;88.60;;;;;;5515713;25;19987;-70
2024/05/07 06:53:13;;;;;;;;;;;26.80;90.80;;;;;;5520940;26;20367;-70
2024/05/07 06:55:39;;;;;;;;;;;27.10;92.00;;;;;;5516290;26;19927;-71
2024/05/07 06:58:06;;;;;;;;;;;27.40;90.00;;;;;;5515361;25;20264;-70
2024/05/07 07:00:31;;;;;;;;;;;27.50;90.30;;;;;;5520939;26;20378;-70
2024/05/07 07:02:57;;;;;;;;;;;27.70;96.10;;;;;;5520377;26;19959;-71
2024/05/07 07:05:23;;;;;;;;;;;27.70;90.30;;;;;;5516313;26;19971;-70
2024/05/07 07:07:48;;;;;;;;;;;27.80;90.40;;;;;;5516010;25;19939;-70
2024/05/07 07:10:15;;;;;;;;;;;28.00;88.90;;;;;;5510640;26;19927;-70
2024/05/07 07:12:40;;;;;;;;;;;27.90;87.80;;;;;;5520790;26;19938;-70
2024/05/07 07:15:06;;;;;;;;;;;28.00;91.30;;;;;;5515906;26;20343;-71
2024/05/07 07:17:31;;;;;;;;;;;27.50;86.70;;;;;;5514888;25;19960;-70
2024/05/07 07:19:57;;;;;;;;;;;27.40;90.00;;;;;;5520488;25;19927;-70
2024/05/07 07:22:23;;;;;;;;;;;27.60;87.10;;;;;;5521221;26;19939;-70
2024/05/07 07:24:50;;;;;;;;;;;27.90;86.30;;;;;;5519360;26;19927;-71
2024/05/07 07:27:16;;;;;;;;;;;28.00;85.80;;;;;;5519541;25;19928;-70
2024/05/07 07:29:41;;;;;;;;;;;27.60;84.90;;;;;;5484057;26;19933;-71
2024/05/07 07:32:07;;;;;;;;;;;27.40;88.30;;;;;;5520120;26;20442;-71
2024/05/07 07:34:32;;;;;;;;;;;27.50;86.90;;;;;;5516360;26;20328;-71
2024/05/07 07:36:59;;;;;;;;;;;27.60;86.50;;;;;;5518979;25;19928;-71
2024/05/07 07:39:25;;;;;;;;;;;27.20;83.90;;;;;;5512072;26;19928;-70
2024/05/07 07:41:51;;;;;;;;;;;26.90;88.50;;;;;;5512473;25;19935;-71
2024/05/07 07:44:16;;;;;;;;;;;26.60;85.50;;;;;;5520702;26;20353;-71
2024/05/07 07:46:42;;;;;;;;;;;26.40;85.70;;;;;;5520185;26;19927;-71
2024/05/07 07:49:07;;;;;;;;;;;26.30;90.00;;;;;;5519918;26;19927;-71
2024/05/07 07:51:33;;;;;;;;;;;26.00;87.90;;;;;;5517258;25;19928;-71
2024/05/07 07:53:59;;;;;;;;;;;25.90;89.60;;;;;;5508777;26;19957;-71
2024/05/07 07:56:26;;;;;;;;;;;25.70;90.10;;;;;;5517946;26;19936;-71
2024/05/07 07:58:51;;;;;;;;;;;25.50;87.70;;;;;;5517152;25;19927;-71
2024/05/07 08:01:17;;;;;;;;;;;25.30;90.20;;;;;;5520350;26;19939;-71
2024/05/07 08:03:42;;;;;;;;;;;25.10;90.30;;;;;;5519965;26;20306;-71
2024/05/07 08:06:08;;;;;;;;;;;24.70;89.80;;;;;;5514712;25;20271;-71
2024/05/07 08:08:33;;;;;;;;;;;24.20;90.70;;;;;;5520244;26;19927;-71
2024/05/07 08:10:59;;;;;;;;;;;23.60;92.20;;;;;;5519556;26;19927;-70
2024/05/07 08:13:25;;;;;;;;;;;23.30;92.50;;;;;;5516256;26;20375;-71
2024/05/07 08:15:50;;;;;;;;;;;23.30;93.30;;;;;;5514540;25;19941;-71
2024/05/07 08:18:17;;;;;;;;;;;23.50;92.70;;;;;;5519702;26;20058;-70
2024/05/07 08:20:45;;;;;;;;;;;23.70;93.00;;;;;;5517246;26;20381;-70
2024/05/07 08:23:12;;;;;;;;;;;24.00;91.50;;;;;;5518199;26;20374;-70
2024/05/07 08:25:37;;;;;;;;;;;24.10;93.80;;;;;;5518632;25;19928;-70
2024/05/07 08:28:03;;;;;;;;;;;24.20;91.50;;;;;;5519244;26;19927;-70
2024/05/07 08:30:29;;;;;;;;;;;24.20;93.60;;;;;;5516142;26;20401;-70
2024/05/07 08:32:54;;;;;;;;;;;24.30;92.20;;;;;;5519273;25;19927;-70
2024/05/07 08:35:20;;;;;;;;;;;24.60;92.30;;;;;;5520336;26;19931;-70
2024/05/07 08:37:45;;;;;;;;;;;24.90;91.20;;;;;;5520217;26;19928;-70
2024/05/07 08:40:13;;;;;;;;;;;24.90;90.80;;;;;;5518248;25;19944;-70
2024/05/07 08:42:38;;;;;;;;;;;24.70;87.90;;;;;;5519050;25;19931;-70
2024/05/07 08:45:07;;;;;;;;;;;24.60;88.30;;;;;;5518724;26;19928;-70
2024/05/07 08:47:32;;;;;;;;;;;24.60;90.50;;;;;;5519724;26;19928;-70
2024/05/07 08:49:58;;;;;;;;;;;24.70;90.50;;;;;;5519145;26;20039;-69
2024/05/07 08:52:25;;;;;;;;;;;24.70;89.30;;;;;;5511454;25;19934;-70
2024/05/07 08:54:51;;;;;;;;;;;24.70;90.00;;;;;;5518518;26;20373;-69
2024/05/07 08:57:17;;;;;;;;;;;24.60;87.30;;;;;;5519001;26;19996;-70
2024/05/07 08:59:43;;;;;;;;;;;24.50;90.10;;;;;;5519558;26;19931;-70
2024/05/07 09:02:09;;;;;;;;;;;24.10;90.40;;;;;;5517810;25;19934;-70
2024/05/07 09:04:34;;;;;;;;;;;23.50;91.10;;;;;;5514969;26;20237;-70
2024/05/07 09:07:00;;;;;;;;;;;23.30;93.00;;;;;;5516587;26;20431;-70
2024/05/07 09:09:25;;;;;;;;;;;23.50;92.30;;;;;;5518700;25;19968;-70
2024/05/07 09:11:55;;;;;;;;;;;23.60;92.20;;;;;;5518211;26;19980;-70
2024/05/07 09:14:21;;;;;;;;;;;23.90;92.10;;;;;;5511922;26;19942;-70
2024/05/07 09:16:46;;;;;;;;;;;24.40;91.90;;;;;;5513953;26;19927;-70
2024/05/07 09:19:12;;;;;;;;;;;24.70;89.90;;;;;;5515032;25;19942;-70
2024/05/07 09:21:38;;;;;;;;;;;24.90;91.00;;;;;;5518443;26;19979;-70
2024/05/07 09:24:04;;;;;;;;;;;24.90;90.80;;;;;;5514028;26;20349;-70
2024/05/07 09:26:29;;;;;;;;;;;24.80;90.30;;;;;;5518122;25;19927;-70
2024/05/07 09:28:55;;;;;;;;;;;24.40;91.30;;;;;;5518027;26;20039;-70
2024/05/07 09:31:21;;;;;;;;;;;24.10;92.10;;;;;;5514652;25;19935;-70
2024/05/07 09:33:48;;;;;;;;;;;23.90;91.70;;;;;;5518584;26;19943;-70
2024/05/07 09:36:16;;;;;;;;;;;23.80;91.90;;;;;;5514874;25;19928;-70
2024/05/07 09:38:45;;;;;;;;;;;23.80;92.60;;;;;;5512499;26;19934;-69
2024/05/07 09:41:13;;;;;;;;;;;23.40;92.80;;;;;;5516938;25;19947;-70
2024/05/07 09:43:39;;;;;;;;;;;23.20;93.00;;;;;;5518671;26;20253;-70
2024/05/07 09:46:05;;;;;;;;;;;23.00;92.40;;;;;;5513586;26;19934;-70
2024/05/07 09:48:34;;;;;;;;;;;23.20;92.70;;;;;;5515456;26;19935;-70
2024/05/07 09:51:01;;;;;;;;;;;23.30;92.50;;;;;;5514016;25;20367;-70
2024/05/07 09:53:28;;;;;;;;;;;23.50;92.40;;;;;;5510368;26;20390;-70
2024/05/07 09:55:54;;;;;;;;;;;23.80;93.00;;;;;;5512982;26;19935;-70
2024/05/07 09:58:21;;;;;;;;;;;23.80;91.60;;;;;;5517519;25;19927;-70
2024/05/07 10:00:47;;;;;;;;;;;23.70;91.90;;;;;;5518021;26;19934;-70
2024/05/07 10:03:12;;;;;;;;;;;23.50;90.80;;;;;;5517797;26;19944;-70
2024/05/07 10:05:38;;;;;;;;;;;23.30;91.60;;;;;;5508724;26;19932;-70
2024/05/07 10:08:05;;;;;;;;;;;23.30;90.70;;;;;;5516411;25;19927;-70
2024/05/07 10:10:40;;;;;;;;;;;23.50;92.40;;;;;;5518306;26;20454;-70
2024/05/07 10:13:06;;;;;;;;;;;23.60;92.70;;;;;;5514835;26;19931;-69
2024/05/07 10:15:32;;;;;;;;;;;23.10;91.60;;;;;;5513177;26;19995;-69
2024/05/07 10:18:00;;;;;;;;;;;22.70;92.30;;;;;;5510004;25;19934;-69
2024/05/07 10:20:25;;;;;;;;;;;22.10;93.10;;;;;;5521657;26;19935;-70
2024/05/07 10:23:07;;;;;;;;;;;21.40;91.90;;;;;;5522021;26;19991;-70
2024/05/07 10:25:49;;;;;;;;;;;20.90;93.90;;;;;;5510713;25;20467;-70
2024/05/07 10:28:15;;;;;;;;;;;21.00;95.00;;;;;;5516573;26;19939;-70
2024/05/07 10:30:47;;;;;;;;;;;21.40;93.90;;;;;;5517110;26;20003;-70
2024/05/07 10:33:14;;;;;;;;;;;21.80;95.40;;;;;;5518305;26;19934;-70
2024/05/07 10:35:52;;;;;;;;;;;22.00;94.00;;;;;;5518886;25;19995;-70
2024/05/07 10:38:30;;;;;;;;;;;22.00;92.20;;;;;;5509252;26;19927;-70
2024/05/07 10:41:06;;;;;;;;;;;22.20;92.30;;;;;;5515294;26;20019;-70
2024/05/07 10:43:35;;;;;;;;;;;22.40;91.50;;;;;;5516064;26;19932;-70
2024/05/07 10:46:02;;;;;;;;;;;22.50;92.30;;;;;;5520408;26;20469;-70
2024/05/07 10:48:29;;;;;;;;;;;22.60;91.40;;;;;;5521045;26;19927;-70
2024/05/07 10:50:56;;;;;;;;;;;22.70;93.00;;;;;;5507600;25;20264;-70
2024/05/07 10:53:22;;;;;;;;;;;22.80;93.60;;;;;;5521744;26;20695;-70
2024/05/07 10:55:47;;;;;;;;;;;22.80;92.20;;;;;;5488566;26;19935;-69
2024/05/07 10:58:16;;;;;;;;;;;22.80;93.20;;;;;;5484545;26;19936;-69
2024/05/07 11:00:42;;;;;;;;;;;22.90;92.90;;;;;;5518973;25;19934;-70
2024/05/07 11:03:07;;;;;;;;;;;22.80;93.00;;;;;;5520889;26;19928;-69
2024/05/07 11:05:33;;;;;;;;;;;22.60;94.40;;;;;;5520363;26;20004;-69
2024/05/07 11:08:00;;;;;;;;;;;22.70;94.70;;;;;;5515361;25;21493;-70
2024/05/07 11:10:26;;;;;;;;;;;22.80;93.90;;;;;;5520196;25;19941;-69
2024/05/07 11:12:51;;;;;;;;;;;22.30;93.00;;;;;;5520195;26;19932;-69
2024/05/07 11:15:17;;;;;;;;;;;21.90;94.60;;;;;;5519715;26;19990;-69
2024/05/07 11:17:43;;;;;;;;;;;21.50;94.90;;;;;;5520440;26;20279;-69
2024/05/07 11:20:10;;;;;;;;;;;21.40;95.20;;;;;;5514857;25;19939;-69
2024/05/07 11:22:43;;;;;;;;;;;21.60;94.90;;;;;;5517568;26;19928;-69
2024/05/07 11:25:09;;;;;;;;;;;21.70;94.30;;;;;;5520392;26;19959;-69
2024/05/07 11:27:34;;;;;;;;;;;21.80;95.80;;;;;;5521335;26;19927;-69
2024/05/07 11:30:00;;;;;;;;;;;21.70;95.20;;;;;;5515651;25;19939;-69
2024/05/07 11:32:25;;;;;;;;;;;21.30;94.30;;;;;;5521665;26;19927;-70
2024/05/07 11:34:51;;;;;;;;;;;21.10;95.40;;;;;;5520832;26;19936;-70
2024/05/07 11:37:17;;;;;;;;;;;21.20;95.20;;;;;;5519258;25;19927;-69
2024/05/07 11:39:42;;;;;;;;;;;21.40;94.30;;;;;;5518842;26;20649;-69
2024/05/07 11:42:08;;;;;;;;;;;21.60;94.70;;;;;;5512858;25;19931;-69
2024/05/07 11:44:36;;;;;;;;;;;21.90;94.60;;;;;;5484200;26;19933;-69
2024/05/07 11:47:01;;;;;;;;;;;21.80;94.70;;;;;;5519223;26;19979;-70
2024/05/07 11:49:27;;;;;;;;;;;21.40;93.60;;;;;;5520044;25;19939;-69
2024/05/07 11:51:53;;;;;;;;;;;20.80;95.20;;;;;;5519750;26;19934;-70
2024/05/07 11:54:18;;;;;;;;;;;20.40;95.70;;;;;;5520312;26;20444;-69
2024/05/07 11:56:44;;;;;;;;;;;20.60;96.40;;;;;;5515878;26;19935;-69
2024/05/07 11:59:11;;;;;;;;;;;21.00;95.10;;;;;;5519286;25;19939;-69
2024/05/07 12:01:36;;;;;;;;;;;21.30;95.60;;;;;;5516550;26;19934;-69
2024/05/07 12:04:02;;;;;;;;;;;21.50;96.40;;;;;;5512565;26;19936;-69
2024/05/07 12:06:28;;;;;;;;;;;21.90;95.50;;;;;;5519726;25;19927;-69
2024/05/07 12:08:54;;;;;;;;;;;22.20;95.10;;;;;;5518656;26;19927;-70
2024/05/07 12:11:21;;;;;;;;;;;22.50;94.00;;;;;;5520794;26;20257;-69
2024/05/07 12:13:47;;;;;;;;;;;22.80;93.90;;;;;;5519930;26;20664;-69
2024/05/07 12:16:13;;;;;;;;;;;23.10;93.30;;;;;;5518560;25;20075;-69
2024/05/07 12:18:38;;;;;;;;;;;22.70;92.20;;;;;;5514974;26;20364;-69
2024/05/07 12:21:04;;;;;;;;;;;22.20;92.40;;;;;;5515789;26;20300;-70
2024/05/07 12:26:14;;;;;;;;;;;21.20;95.20;;;;;;5517958;26;20041;-69
2024/05/07 12:28:40;;;;;;;;;;;21.20;96.00;;;;;;5517617;26;19996;-69
2024/05/07 12:31:05;;;;;;;;;;;21.50;95.90;;;;;;5519372;26;20052;-69
2024/05/07 12:33:31;;;;;;;;;;;21.50;94.90;;;;;;5516172;25;19928;-69
2024/05/07 12:35:57;;;;;;;;;;;21.60;95.60;;;;;;5517639;26;19980;-69
2024/05/07 12:38:22;;;;;;;;;;;21.50;95.30;;;;;;5519699;26;19942;-69
2024/05/07 12:40:48;;;;;;;;;;;21.40;95.90;;;;;;5519014;26;19928;-69
2024/05/07 12:43:14;;;;;;;;;;;21.40;95.90;;;;;;5502650;25;19947;-70
2024/05/07 12:45:41;;;;;;;;;;;21.50;96.60;;;;;;5519403;26;20271;-70
2024/05/07 12:48:07;;;;;;;;;;;21.50;96.30;;;;;;5484060;26;19927;-69
2024/05/07 12:50:33;;;;;;;;;;;21.40;94.10;;;;;;5514891;25;19928;-69
2024/05/07 12:52:58;;;;;;;;;;;21.20;95.50;;;;;;5514777;26;19927;-69
2024/05/07 12:55:24;;;;;;;;;;;21.20;95.80;;;;;;5519623;26;19927;-69
2024/05/07 12:57:50;;;;;;;;;;;21.10;95.90;;;;;;5515267;26;19927;-69
2024/05/07 13:00:17;;;;;;;;;;;21.00;96.30;;;;;;5518275;25;19927;-69
2024/05/07 13:02:42;;;;;;;;;;;20.70;96.50;;;;;;5518977;26;19935;-69
2024/05/07 13:05:08;;;;;;;;;;;20.60;96.60;;;;;;5518458;26;19962;-69
2024/05/07 13:07:34;;;;;;;;;;;20.70;96.70;;;;;;5518864;26;19934;-69
2024/05/07 13:10:00;;;;;;;;;;;20.70;97.10;;;;;;5518170;25;19927;-69
2024/05/07 13:12:25;;;;;;;;;;;20.50;97.40;;;;;;5515954;26;19927;-69
2024/05/07 13:14:51;;;;;;;;;;;20.40;96.50;;;;;;5519114;26;19928;-69
2024/05/07 13:17:17;;;;;;;;;;;20.50;97.90;;;;;;5516974;25;19934;-69
2024/05/07 13:19:43;;;;;;;;;;;20.60;96.40;;;;;;5514616;26;19939;-69
2024/05/07 13:22:09;;;;;;;;;;;20.60;97.40;;;;;;5518617;26;19931;-69
2024/05/07 13:24:34;;;;;;;;;;;20.40;97.30;;;;;;5519473;26;19928;-69
2024/05/07 13:27:00;;;;;;;;;;;20.10;97.20;;;;;;5517226;25;19927;-69
2024/05/07 13:29:27;;;;;;;;;;;20.00;98.10;;;;;;5513570;25;19927;-69
2024/05/07 13:31:53;;;;;;;;;;;20.10;98.30;;;;;;5518817;26;19927;-70
2024/05/07 13:34:18;;;;;;;;;;;20.10;98.80;;;;;;5518024;26;19934;-69
2024/05/07 13:36:44;;;;;;;;;;;20.20;98.10;;;;;;5517467;25;19928;-69
2024/05/07 13:39:09;;;;;;;;;;;20.40;98.30;;;;;;5517959;26;20282;-69
2024/05/07 13:41:35;;;;;;;;;;;20.60;97.90;;;;;;5518057;25;20033;-69
2024/05/07 13:44:00;;;;;;;;;;;20.70;96.70;;;;;;5506241;26;19940;-70
2024/05/07 13:46:26;;;;;;;;;;;20.60;96.60;;;;;;5514897;26;19927;-69
2024/05/07 13:48:52;;;;;;;;;;;20.70;97.80;;;;;;5516484;25;19928;-69
2024/05/07 13:51:18;;;;;;;;;;;20.70;98.00;;;;;;5516825;26;19960;-69
2024/05/07 13:53:43;;;;;;;;;;;20.70;97.90;;;;;;5519666;26;20337;-69
2024/05/07 13:56:09;;;;;;;;;;;20.70;97.60;;;;;;5521603;26;19995;-69
2024/05/07 13:58:35;;;;;;;;;;;20.60;97.30;;;;;;5521679;25;19934;-69
2024/05/07 14:01:01;;;;;;;;;;;20.30;98.10;;;;;;5516876;26;19936;-69
2024/05/07 14:03:26;;;;;;;;;;;20.20;97.80;;;;;;5518231;26;19927;-69
2024/05/07 14:05:52;;;;;;;;;;;20.00;98.90;;;;;;5521137;25;19939;-69
2024/05/07 14:08:18;;;;;;;;;;;20.00;97.90;;;;;;5517410;26;19927;-70
2024/05/07 14:10:43;;;;;;;;;;;20.00;98.60;;;;;;5522373;26;19941;-70
2024/05/07 14:13:09;;;;;;;;;;;20.00;98.20;;;;;;5507915;26;19968;-69
2024/05/07 14:15:35;;;;;;;;;;;20.00;98.90;;;;;;5516714;25;20265;-69
2024/05/07 14:18:00;;;;;;;;;;;20.10;98.90;;;;;;5516565;26;19967;-69